Latest Weather Observations for Wulungurru (Kintore)

IDD60801

Issued at 1:01 pm CST Wednesday 27 May 2015 (issued every 30 minutes, with the page automatically refreshed every 10 minutes)

About weather observations | Map of weather stations | Latest weather observations for NT | Other Formats
Station Details ID: 015664 Name: WALUNGURRU AIRPORT Lat: -23.27 Lon: 129.38 Height: 454.3 m
Data from the previous 72 hours. | See also: Recent months at Wulungurru (Kintore)
Date/Time
CST
Temp
°C
App
Temp
°C
Dew
Point
Rel
Hum
%
Delta-T
°C
Wind Press
QNH
hPa
Press
MSL
hPa
Rain
since 9 am
mm
Dir
 
Spd
km/h
Gust
km/h
Spd
kts
Gust
kts
27/01:00pm 27.7 23.3 2.7 20 12.6 N 15 20 8 11 1018.3 - 0.0
27/12:30pm 28.7 24.4 3.5 20 12.9 N 15 20 8 11 1018.9 - 0.0
27/12:00pm 29.2 24.3 3.9 20 13.1 NNE 19 24 10 13 1019.2 1018.0 0.0
27/11:30am 28.2 23.2 3.8 21 12.6 NNE 19 24 10 13 1019.1 - 0.0
27/11:00am 27.1 22.2 4.2 23 11.8 NNE 19 26 10 14 1019.7 - 0.0
27/10:30am 26.6 22.0 5.5 26 11.1 ENE 19 28 10 15 1020.0 - 0.0
27/10:00am 25.2 20.5 5.9 29 10.1 ENE 20 28 11 15 1020.0 - 0.0
27/09:30am 23.2 18.1 6.0 33 8.9 E 22 32 12 17 1020.2 - 0.0
27/09:00am 22.3 17.1 5.7 34 8.5 E 22 30 12 16 1019.9 1018.8 0.0
27/08:30am 22.0 16.9 5.8 35 8.3 E 22 30 12 16 1019.8 - 0.0
27/08:00am 22.8 17.5 4.8 31 9.1 E 22 30 12 16 1019.6 - 0.0
27/07:30am 21.9 16.6 4.9 33 8.6 E 22 30 12 16 1019.2 - 0.0
27/07:00am 19.6 16.7 4.5 37 7.4 S 9 11 5 6 1019.2 - 0.0
27/06:30am 20.5 17.1 4.1 34 8.1 S 11 15 6 8 1018.8 - 0.0
27/06:00am 20.2 15.5 5.1 37 7.5 S 19 22 10 12 1019.0 1017.8 0.0
27/05:30am 20.9 16.7 5.7 37 7.7 SSE 17 22 9 12 1019.1 - 0.0
27/05:00am 20.0 15.2 4.9 37 7.5 SSE 19 24 10 13 1019.2 - 0.0
27/04:30am 20.4 16.3 4.4 35 7.9 S 15 19 8 10 1019.0 - 0.0
27/04:00am 20.7 15.2 3.9 33 8.2 SSE 22 28 12 15 1019.1 - 0.0
27/03:30am 21.3 17.6 2.1 28 9.1 ESE 11 17 6 9 1019.3 - 0.0
27/03:00am 22.3 17.6 0.8 24 10.0 SSE 15 22 8 12 1019.5 1018.3 0.0
27/02:30am 22.1 17.4 1.2 25 9.8 SE 15 19 8 10 1019.9 - 0.0
27/02:00am 21.5 16.9 1.7 27 9.4 SSE 15 19 8 10 1020.1 - 0.0
27/01:30am 21.5 17.3 1.7 27 9.4 S 13 20 7 11 1020.1 - 0.0
27/01:00am 21.5 18.1 1.7 27 9.4 SSE 9 9 5 5 1020.0 - 0.0
27/12:30am 21.7 18.3 1.9 27 9.4 SSE 9 11 5 6 1020.5 - 0.0
27/12:00am 21.5 18.5 1.7 27 9.3 SSE 7 9 4 5 1020.9 1019.8 0.0
 
Date/Time
CST
Temp
°C
App
Temp
°C
Dew
Point
Rel
Hum
%
Delta-T
°C
Wind Press
QNH
hPa
Press
MSL
hPa
Rain
since 9 am
mm
Dir
 
Spd
km/h
Gust
km/h
Spd
kts
Gust
kts
26/11:30pm 21.4 18.0 1.6 27 9.4 S 9 11 5 6 1021.2 - 0.0
26/11:00pm 21.2 17.8 2.0 28 9.1 SSE 9 11 5 6 1021.0 - 0.0
26/10:30pm 21.6 18.2 1.8 27 9.4 SSE 9 11 5 6 1021.3 - 0.0
26/10:00pm 21.8 18.0 2.0 27 9.5 SSE 11 13 6 7 1021.3 - 0.0
26/09:30pm 21.6 17.8 1.8 27 9.4 SSE 11 13 6 7 1021.4 - 0.0
26/09:00pm 21.8 18.0 2.0 27 9.4 SSE 11 13 6 7 1021.3 1020.1 0.0
26/08:30pm 21.9 18.2 2.1 27 9.5 SSE 11 13 6 7 1020.8 - 0.0
26/08:00pm 22.2 18.8 1.8 26 9.7 SE 9 11 5 6 1020.7 - 0.0
26/07:30pm 22.1 19.1 1.7 26 9.7 E 7 9 4 5 1020.4 - 0.0
26/07:00pm 22.8 20.0 1.8 25 10.1 E 6 6 3 3 1020.0 - 0.0
26/06:30pm 24.2 21.3 1.2 22 11.0 ENE 6 7 3 4 1019.8 - 0.0
26/06:00pm 26.6 23.5 1.1 19 12.4 NNE 7 11 4 6 1019.5 1018.3 0.0
26/05:30pm 27.5 23.6 1.1 18 12.9 N 11 15 6 8 1019.4 - 0.0
26/05:00pm 27.7 24.5 0.5 17 13.2 N 7 13 4 7 1019.3 - 0.0
26/04:30pm 28.1 25.0 1.6 18 13.1 NE 7 13 4 7 1019.1 - 0.0
26/04:00pm 28.1 24.1 0.8 17 13.3 ENE 11 17 6 9 1019.3 - 0.0
26/03:30pm 28.5 23.8 1.1 17 13.5 NE 15 24 8 13 1019.1 - 0.0
26/03:00pm 28.9 23.9 1.4 17 13.6 ENE 17 28 9 15 1019.4 1018.2 0.0
26/02:30pm 28.1 23.8 0.8 17 13.3 NE 13 22 7 12 1019.6 - 0.0
26/02:00pm 28.4 23.5 1.8 18 13.2 NE 17 22 9 12 1020.1 - 0.0
26/01:30pm 27.7 22.3 1.2 18 13.0 NNE 19 30 10 16 1020.5 - 0.0
26/01:00pm 27.3 21.9 2.4 20 12.4 NE 20 28 11 15 1021.0 - 0.0
26/12:30pm 27.0 21.4 3.5 22 11.9 NE 22 28 12 15 1021.6 - 0.0
26/12:00pm 26.3 20.6 2.9 22 11.7 NE 22 30 12 16 1022.3 1021.2 0.0
26/11:30am 25.1 19.2 3.7 25 10.8 NE 24 32 13 17 1022.5 - 0.0
26/11:00am 25.5 19.2 4.0 25 10.9 NE 26 33 14 18 1022.8 - 0.0
26/10:30am 24.5 18.3 4.3 27 10.3 ENE 26 32 14 17 1022.8 - 0.0
26/10:00am 23.5 17.7 4.5 29 9.6 ENE 24 32 13 17 1023.1 - 0.0
26/09:30am 21.8 16.0 4.4 32 8.7 ENE 24 35 13 19 1023.2 - 0.0
26/09:00am 20.5 14.3 4.1 34 8.0 ENE 26 32 14 17 1023.2 1022.1 0.0
26/08:30am 19.4 14.4 3.6 35 7.6 ENE 19 28 10 15 1023.1 - 0.0
26/08:00am 18.3 12.4 3.8 38 7.0 ENE 24 33 13 18 1022.6 - 0.0
26/07:30am 19.4 13.4 3.2 34 7.8 E 24 35 13 19 1022.3 - 0.0
26/07:00am 20.3 13.4 2.6 31 8.5 E 28 35 15 19 1022.2 - 0.0
26/06:30am 19.7 12.9 3.0 33 8.0 E 28 37 15 20 1021.8 - 0.0
26/06:00am 19.6 13.5 2.9 33 8.0 E 24 32 13 17 1021.7 1020.5 0.0
26/05:30am 19.9 14.7 2.7 32 8.2 E 19 28 10 15 1021.8 - 0.0
26/05:00am 18.1 14.0 4.3 40 6.7 SE 15 20 8 11 1021.9 - 0.0
26/04:30am 18.4 13.4 4.6 40 6.8 SE 20 24 11 13 1022.0 - 0.0
26/04:00am 18.2 13.7 4.4 40 6.7 SE 17 22 9 12 1022.1 - 0.0
26/03:30am 17.9 13.1 4.8 42 6.4 SE 19 26 10 14 1021.8 - 0.0
26/03:00am 18.5 13.1 4.3 39 6.9 SE 22 30 12 16 1022.0 1020.9 0.0
26/02:30am 18.4 12.6 4.2 39 6.9 SE 24 33 13 18 1022.3 - 0.0
26/02:00am 18.6 13.0 3.6 37 7.2 ESE 22 30 12 16 1022.5 - 0.0
26/01:30am 19.8 14.5 3.1 33 8.0 ESE 20 28 11 15 1022.6 - 0.0
26/01:00am 19.0 13.1 4.0 37 7.3 ESE 24 32 13 17 1022.8 - 0.0
26/12:30am 18.5 13.7 4.7 40 6.8 SE 19 28 10 15 1023.1 - 0.0
26/12:00am 18.3 12.7 5.2 42 6.5 SE 24 33 13 18 1023.3 1022.2 0.0
 
Date/Time
CST
Temp
°C
App
Temp
°C
Dew
Point
Rel
Hum
%
Delta-T
°C
Wind Press
QNH
hPa
Press
MSL
hPa
Rain
since 9 am
mm
Dir
 
Spd
km/h
Gust
km/h
Spd
kts
Gust
kts
25/11:30pm 18.5 13.6 5.0 41 6.7 SE 20 30 11 16 1023.5 - 0.0
25/11:00pm 18.5 13.9 5.4 42 6.5 ESE 19 26 10 14 1023.7 - 0.0
25/10:30pm 18.5 13.2 5.0 41 6.7 SE 22 33 12 18 1023.5 - 0.0
25/10:00pm 18.6 13.8 4.8 40 6.8 SE 19 24 10 13 1023.6 - 0.0
25/09:30pm 19.1 13.2 4.1 37 7.3 SE 24 32 13 17 1023.1 - 0.0
25/09:00pm 19.2 14.2 3.8 36 7.4 SE 19 32 10 17 1023.3 1022.2 0.0
25/08:30pm 19.2 14.9 3.0 34 7.7 SE 15 19 8 10 1023.5 - 0.0
25/08:00pm 19.2 15.9 2.6 33 7.9 SSE 9 17 5 9 1023.8 - 0.0
25/07:30pm 19.7 15.6 2.1 31 8.3 S 13 19 7 10 1023.1 - 0.0
25/07:00pm 20.3 15.7 1.7 29 8.7 S 15 20 8 11 1022.9 - 0.0
25/06:30pm 20.9 16.0 1.7 28 9.1 S 17 22 9 12 1022.7 - 0.0
25/06:00pm 22.1 18.1 0.6 24 10.0 SSE 11 13 6 7 1022.5 1021.4 0.0
25/05:30pm 22.5 19.2 0.4 23 10.3 SSW 7 13 4 7 1022.5 - 0.0
25/05:00pm 22.9 19.7 0.7 23 10.4 SSW 7 9 4 5 1022.4 - 0.0
25/04:30pm 22.9 20.6 0.7 23 10.4 ESE 2 9 1 5 1022.0 - 0.0
25/04:00pm 23.0 20.0 0.8 23 10.5 NNE 6 9 3 5 1022.0 - 0.0
25/03:30pm 23.1 19.4 0.2 22 10.7 N 9 17 5 9 1021.8 - 0.0
25/03:00pm 23.3 18.1 0.4 22 10.7 E 17 24 9 13 1020.6 1019.5 0.0
25/02:30pm 23.0 17.2 0.2 22 10.6 E 20 26 11 14 1020.0 - 0.0
25/02:00pm 22.6 16.8 -0.2 22 10.5 E 20 28 11 15 1020.7 - 0.0
25/01:30pm 22.1 16.9 0.0 23 10.2 NE 17 24 9 13 1021.7 - 0.0
25/01:00pm 22.4 17.6 0.3 23 10.3 NE 15 20 8 11 1022.6 - 0.0
25/12:30pm 21.9 16.7 0.4 24 10.0 NNE 17 20 9 11 1023.2 - 0.0
25/12:00pm 21.6 16.4 0.2 24 9.8 NE 17 22 9 12 1023.3 1022.2 0.0
25/11:30am 21.2 16.0 -0.1 24 9.7 NE 17 20 9 11 1023.6 - 0.0
25/11:00am 20.7 15.4 -0.6 24 9.6 NE 17 19 9 10 1024.0 - 0.0
25/10:30am 20.2 14.9 -0.4 25 9.3 NE 17 22 9 12 1024.3 - 0.0
25/10:00am 19.8 14.6 -0.2 26 9.0 ENE 17 24 9 13 1024.3 - 0.0
25/09:30am 19.5 13.6 -0.5 26 8.9 E 20 28 11 15 1023.7 - 0.0
25/09:00am 19.4 13.1 -1.1 25 9.0 E 22 32 12 17 1023.5 1022.3 0.0
25/08:30am 19.3 13.5 -1.2 25 9.0 E 19 26 10 14 1023.1 - 0.0
25/08:00am 19.4 13.3 -2.2 23 9.3 E 20 32 11 17 1022.9 - 0.0
25/07:30am 18.7 13.8 -0.2 28 8.4 ESE 15 20 8 11 1022.6 - 0.0
25/07:00am 17.6 12.2 1.2 33 7.5 SE 19 24 10 13 1022.1 - 0.0
25/06:30am 17.5 12.5 1.5 34 7.3 SE 17 20 9 11 1021.6 - 0.0
25/06:00am 17.5 12.0 1.9 35 7.2 SE 20 28 11 15 1021.3 1020.1 0.0
25/05:30am 15.8 11.5 5.4 50 5.1 SSE 17 22 9 12 1021.6 - 0.0
25/05:00am 15.5 11.7 5.7 52 4.8 SSE 15 22 8 12 1021.5 - 0.0
25/04:30am 15.9 11.3 5.8 51 5.0 SSE 19 22 10 12 1021.7 - 0.0
25/04:00am 16.2 11.9 5.2 48 5.4 SSE 17 22 9 12 1021.7 - 0.0
25/03:30am 16.7 11.5 3.7 42 6.2 S 20 24 11 13 1021.5 - 0.0
25/03:00am 17.2 13.1 2.4 37 6.9 SSE 13 17 7 9 1021.6 1020.4 0.0
25/02:30am 16.9 13.7 2.9 39 6.6 S 9 11 5 6 1021.9 - 0.0
25/02:00am 17.2 13.2 3.1 39 6.6 SSE 13 19 7 10 1021.8 - 0.0
25/01:30am 17.5 11.8 2.7 37 6.9 SE 22 30 12 16 1020.8 - 0.0
25/01:00am 16.5 9.7 4.9 46 5.6 SE 30 37 16 20 1020.9 - 0.0
25/12:30am 16.9 11.1 4.3 43 6.1 SE 24 32 13 17 1022.4 - 0.0
25/12:00am 16.2 11.4 5.5 49 5.2 S 20 30 11 16 1023.7 1022.5 0.0
 
Date/Time
CST
Temp
°C
App
Temp
°C
Dew
Point
Rel
Hum
%
Delta-T
°C
Wind Press
QNH
hPa
Press
MSL
hPa
Rain
since 9 am
mm
Dir
 
Spd
km/h
Gust
km/h
Spd
kts
Gust
kts
24/11:30pm 16.1 12.3 6.0 51 5.0 S 15 22 8 12 1023.8 - 0.0
24/11:00pm 16.3 11.8 5.9 50 5.2 S 19 22 10 12 1023.6 - 0.0
24/10:30pm 16.3 12.6 6.4 52 5.0 SSE 15 20 8 11 1023.2 - 0.0
24/10:00pm 15.8 12.6 7.0 56 4.4 SSE 13 17 7 9 1023.5 - 0.0
24/09:30pm 17.6 13.7 3.5 39 6.7 S 13 19 7 10 1023.5 - 0.0
24/09:00pm 17.8 13.9 3.3 38 6.9 SSE 13 17 7 9 1023.1 1022.0 0.0
24/08:30pm 18.1 13.6 2.4 35 7.3 SSE 15 20 8 11 1022.7 - 0.0
24/08:00pm 18.6 14.8 1.6 32 7.9 SSE 11 15 6 8 1022.6 - 0.0
24/07:30pm 19.0 15.8 0.6 29 8.4 SE 7 11 4 6 1022.4 - 0.0
24/07:00pm 19.7 16.0 0.2 27 8.8 E 9 11 5 6 1021.8 - 0.0
24/06:30pm 19.8 16.8 1.7 30 8.5 E 7 11 4 6 1021.7 - 0.0
24/06:00pm 19.9 16.1 1.8 30 8.5 E 11 15 6 8 1021.4 1020.2 0.0
24/05:30pm 20.5 16.6 1.4 28 8.9 E 11 17 6 9 1021.0 - 0.0
24/05:00pm 21.3 16.6 -1.9 21 10.2 ESE 13 17 7 9 1020.7 - 0.0
24/04:30pm 21.6 17.3 -1.6 21 10.3 E 11 17 6 9 1020.6 - 0.0
24/04:00pm 21.4 17.5 -1.8 21 10.3 E 9 15 5 8 1020.5 - 0.0
24/03:30pm 21.5 18.8 -2.4 20 10.5 W 2 7 1 4 1020.9 - 0.0
24/03:00pm 21.9 19.3 -2.0 20 10.5 NNE 2 7 1 4 1020.9 1019.8 0.0
24/02:00pm 21.0 17.5 -1.5 22 10.0 N 7 11 4 6 1021.5 - 0.0
24/01:30pm 20.2 15.6 -1.0 24 9.4 N 13 17 7 9 1021.7 - 0.0

Other Formats:

Comma delimited format used in spreadsheet applications
http://www.bom.gov.au/fwo/IDD60801/IDD60801.94321.axf

JavaScript Object Notation format (JSON) in row-major order
http://www.bom.gov.au/fwo/IDD60801/IDD60801.94321.json